x

Pt Arena - 19nm North Of Point Arena, Ca (46014) Wave Buoy

8:50am - Tue 16th Sep 2014 All times are PDT. -7 hours from GMT.

  • Sig Wave height 3.9ft
  • Peak Period 21s
  • Average Period 11s
  • Wind
    9mph
  • Sea Temp 61°f
  • Air Temp 59°f
  • Sea Pressure 1013.8mb
  • Pt Arena - 19nm North Of Point Arena, Ca
  • Pt Arena - 19nm North Of Point Arena, Ca

More Historic Weather Station data

Upgrade to MSW Pro to gain access to the past 30 days of data for over 8000 Wavebouys and Weather Stations around the globe.

Join Pro

Comparision Forecast

View Surf forecast
   
Tue 09/16 8:50am 4ft 21s 11s 9
mph
1013.8mb 61f 59f
7:50am 3.5ft 21s 10s 9 11 mph 1013.5mb 61f 59f
6:50am 3.5ft 21s 11s 9 11 mph 1013.4mb 61f 59f
5:50am 3ft 21s 9s 9
mph
1013.3mb 61f 59f
3:50am 3.5ft 21s 11s 4 7 mph 1013.6mb 61f 60f
2:50am  -   -   -  7
mph
1013.7mb 61f 60f
12:50am  -   -   -  4
mph
- - -
Mon 09/15 11:50pm 3.5ft 21s 12s 4 7 mph 1013.9mb 61f 61f
10:50pm 2.5ft 17s 10s 4
mph
1013.9mb 61f 60f
9:50pm  -   -   -  4
mph
1013.6mb 61f 59f
8:50pm 2.5ft 21s 9s 4
mph
1013.3mb 61f 58f
7:50pm  -   -   -  4
mph
1012.6mb 61f 57f
6:50pm 2.5ft 21s 9s 4
mph
1012.7mb 61f 57f
5:50pm 2.5ft 21s 10s 4 7 mph 1012.8mb 62f 58f
4:50pm 2.5ft 17s 9s 2 4 mph 1013.1mb 62f 58f
3:50pm 2.5ft 17s 9s 4 7 mph 1013.3mb 62f 58f
2:50pm 2.5ft 13s 9s 4 7 mph 1013.7mb 61f 58f
1:50pm 2.5ft 17s 9s 4
mph
1013.9mb 61f 58f
12:50pm 2.5ft 17s 8s 4 7 mph 1013.9mb 61f 57f
11:50am 2.5ft 21s 8s 4 7 mph 1013.9mb 61f 57f
10:50am  -   -   -  4 7 mph - 60f 56f
9:50am 3ft 13s 8s 7
mph
1013.3mb 60f 57f
8:50am 2.5ft 14s 8s 4 7 mph 1013.1mb 60f 56f
7:50am 2.5ft 7s 7s 2 4 mph 1012.8mb 60f 56f
6:50am 3ft 7s 7s  -  4 mph 1012.3mb 61f 55f
5:50am 3ft 8s 7s 2 4 mph 1011.7mb 61f 55f
4:50am 3ft 8s 8s 2 4 mph 1011.5mb 61f 55f
3:50am 3ft 13s 8s 2 7 mph 1011.1mb 61f 55f
2:50am 2.5ft 14s 7s 4 9 mph 1011.8mb 61f 56f
1:50am 2.5ft 8s 8s 2 7 mph 1011.3mb 60f 56f
12:50am 2.5ft 7s 7s 2 7 mph 1011.5mb 60f 56f
Sun 09/14 11:50pm 2.5ft 14s 7s  -  2 mph 1011.4mb 60f 56f
10:50pm 2.5ft 14s 8s 4 7 mph 1011.2mb 60f 56f
9:50pm 3ft 7s 7s 2 7 mph 1011.1mb 60f 56f
8:50pm 2.5ft 13s 7s  -  4 mph 1011mb 60f 56f
7:50pm 2.5ft 7s 7s 2 4 mph 1010.6mb 61f 56f
6:50pm 2.5ft 8s 7s  -  2 mph 1010.7mb 61f 57f
5:50pm 3ft 8s 7s  -  2 mph 1011.1mb 61f 57f
4:50pm 2.5ft 7s 7s 4 7 mph 1011.2mb 61f 57f
3:50pm 2.5ft 8s 7s 4 9 mph 1011.4mb 61f 57f
2:50pm 2.5ft 14s 7s 9 11 mph 1011.7mb 61f 57f
1:50pm 3ft 13s 7s 7 9 mph 1011.9mb 61f 57f
12:50pm 3ft 8s 7s 7 9 mph 1011.8mb 61f 57f
11:50am 3ft 7s 7s 4 7 mph 1011.9mb 61f 57f
10:50am 3ft 7s 7s 4 7 mph 1011.9mb 61f 57f
9:50am 3ft 7s 7s 4 9 mph 1011.9mb 61f 57f
8:50am 3.5ft 7s 7s 4 11 mph 1011.6mb 61f 57f
7:50am 3ft 7s 7s 7 11 mph 1011.3mb 61f 56f
6:50am 3ft 7s 7s 4 7 mph 1010.7mb 61f 56f
5:50am 3ft 10s 8s 4 7 mph 1010.6mb 61f 56f
4:50am 3ft 7s 8s  -  4 mph 1010.4mb 61f 55f
3:50am 3ft 7s 7s 2 7 mph 1010.2mb 61f 55f
2:50am 3ft 14s 7s 7 9 mph 1010.2mb 61f 55f
1:50am  -   -   -  4
mph
- - -
12:50am  -   -   -  2 4 mph 1009.9mb 61f 55f
Sat 09/13 11:50pm 3ft 7s 7s 9 11 mph 1009.5mb 61f 55f
10:50pm 3ft 7s 7s 9 11 mph 1009.6mb 61f 55f
9:50pm 2.5ft 15s 7s 9 11 mph 1009.6mb 61f 56f
8:50pm 3ft 14s 7s 7 9 mph 1009.6mb 61f 56f
7:50pm 3ft 13s 7s 7 9 mph 1009.5mb 62f 56f
6:50pm 3.5ft 14s 7s  -  2 mph 1010mb 62f 56f
5:50pm 3ft 11s 7s 2 7 mph 1010.3mb 62f 56f
4:50pm 3ft 11s 7s 2 4 mph 1010.7mb 61f 56f
3:50pm 3.5ft 8s 7s 2 7 mph 1010.7mb 60f 57f
2:50pm 3.5ft 14s 7s  -  2 mph 1010.9mb 61f 58f
1:50pm 3.5ft 14s 7s  -  2 mph 1011.5mb 61f 58f
12:50pm 3.5ft 11s 8s 2 7 mph 1011.5mb 61f 57f
11:50am 3.5ft 11s 8s 2 4 mph 1011.6mb 60f 56f
10:50am 3.5ft 11s 7s 2
mph
1011.5mb 60f 55f
9:50am 3.5ft 14s 7s  -  mph 1011.7mb 60f 55f
8:50am 3.5ft 11s 7s 2 4 mph 1011.4mb 60f 55f
7:50am 3.5ft 11s 7s 4 7 mph 1011.5mb 60f 55f
6:50am 3.5ft 15s 7s 2 4 mph 1011mb 60f 54f
5:50am 3.5ft 11s 7s 2 4 mph 1010.7mb 60f 54f
4:50am 3.5ft 14s 7s 2 7 mph 1010.4mb 60f 54f
3:50am 4ft 12s 7s 9 13 mph 1010.2mb 60f 54f
2:50am 3.5ft 11s 7s 11
mph
1010.2mb 60f 54f
1:50am 4ft 15s 7s 11 16 mph 1010.3mb 60f 54f
12:50am 4ft 8s 7s 13 16 mph 1010.2mb 60f 54f
Fri 09/12 11:50pm 4ft 11s 7s 11 13 mph 1010.6mb 60f 55f
10:50pm 4ft 8s 8s 9 11 mph 1010.8mb 60f 55f
9:50pm 4ft 8s 7s 9 11 mph 1011mb 61f 55f
8:50pm 4ft 8s 7s 7 9 mph 1011.2mb 61f 55f
7:50pm 4ft 10s 8s 7 9 mph 1011.1mb 61f 55f
6:50pm 4.5ft 11s 7s 7 9 mph 1011.3mb 61f 55f
5:50pm 4ft 8s 7s 2 7 mph 1011.7mb 62f 56f
4:50pm 4ft 8s 7s 2 7 mph 1012mb 61f 56f